Time;durP1;ratioP1;P1;durP2;ratioP2;P2;SDS_P1;SDS_P2;PMS_P1;PMS_P2;Temp;Humidity;BMP_temperature;BMP_pressure;BME280_temperature;BME280_humidity;BME280_pressure;Samples;Min_cycle;Max_cycle;Signal;HPM_P1;HPM_P2
2023/08/30 05:51:43;;;;;;;;;2.00;2.00;;;;;21.56;59.04;100605.38;5053438;27;45519;-76
2023/08/30 05:54:09;;;;;;;;;2.00;2.00;;;;;21.76;58.94;100607.03;5045664;28;45662;-77
2023/08/30 05:56:34;;;;;;;;;2.67;2.67;;;;;21.96;59.16;100615.75;5060890;27;55852;-77
2023/08/30 05:58:59;;;;;;;;;2.67;2.67;;;;;22.20;58.28;100611.47;5066825;27;45704;-75
2023/08/30 06:01:25;;;;;;;;;3.00;1.33;;;;;22.43;58.35;100610.91;5060024;27;52355;-78
2023/08/30 06:03:50;;;;;;;;;1.00;1.00;;;;;22.65;57.89;100614.88;5055540;27;45407;-76
2023/08/30 06:06:16;;;;;;;;;3.00;3.00;;;;;22.89;57.65;100618.63;5042519;28;45420;-75
2023/08/30 06:08:41;;;;;;;;;3.00;3.00;;;;;23.13;56.93;100620.50;5050306;27;45869;-74
2023/08/30 06:11:07;;;;;;;;;3.00;2.00;;;;;23.35;56.48;100623.56;5081305;27;45560;-75
2023/08/30 06:13:32;;;;;;;;;3.33;3.00;;;;;23.56;56.24;100630.31;5045264;27;45447;-75
2023/08/30 06:15:58;;;;;;;;;2.33;2.33;;;;;23.76;56.00;100636.22;5040667;28;45290;-77
2023/08/30 06:18:23;;;;;;;;;3.33;2.00;;;;;23.94;55.54;100633.28;5038270;28;47916;-75
2023/08/30 06:20:49;;;;;;;;;3.00;3.00;;;;;24.12;54.73;100639.53;5039539;28;45407;-78
2023/08/30 06:23:18;;;;;;;;;2.67;2.67;;;;;24.27;54.85;100639.66;5040031;27;45541;-73
2023/08/30 06:25:43;;;;;;;;;4.00;3.00;;;;;24.43;54.54;100636.84;5090512;27;45348;-81
2023/08/30 06:28:08;;;;;;;;;4.00;4.00;;;;;24.57;54.02;100634.41;5044461;28;45487;-77
2023/08/30 06:30:34;;;;;;;;;3.33;2.33;;;;;24.70;53.66;100645.53;5046268;28;46430;-75
2023/08/30 06:33:00;;;;;;;;;2.00;2.00;;;;;24.83;53.31;100652.25;5043795;28;45463;-78
2023/08/30 06:35:25;;;;;;;;;2.00;2.00;;;;;24.96;53.21;100651.66;5057149;27;45682;-77
2023/08/30 06:37:50;;;;;;;;;2.00;2.00;;;;;25.09;53.17;100656.50;5092051;27;45463;-78
2023/08/30 06:40:16;;;;;;;;;2.67;2.67;;;;;25.19;52.32;100656.25;5069397;27;46147;-77
2023/08/30 06:42:41;;;;;;;;;3.00;3.00;;;;;25.27;52.23;100665.16;5045272;28;45371;-79
2023/08/30 06:45:07;;;;;;;;;4.00;2.67;;;;;25.36;51.90;100659.66;5045265;28;45395;-78
2023/08/30 06:47:32;;;;;;;;;3.00;3.00;;;;;25.45;51.69;100655.84;5044772;28;45504;-75
2023/08/30 06:49:58;;;;;;;;;4.00;3.00;;;;;25.51;51.40;100649.69;5074265;27;51350;-78
2023/08/30 06:52:24;;;;;;;;;4.00;4.00;;;;;25.58;51.07;100657.16;5077551;27;45549;-79
2023/08/30 06:54:49;;;;;;;;;2.33;2.33;;;;;25.63;51.09;100654.72;5044623;28;45361;-74
2023/08/30 06:57:14;;;;;;;;;3.00;3.00;;;;;25.69;51.28;100653.97;5036693;28;45472;-75
2023/08/30 06:59:40;;;;;;;;;5.33;2.00;;;;;25.74;50.74;100654.25;5042921;28;56719;-75
2023/08/30 07:02:05;;;;;;;;;4.33;3.33;;;;;25.80;50.86;100649.97;5081524;27;50831;-75
2023/08/30 07:04:31;;;;;;;;;2.33;2.33;;;;;25.84;50.53;100656.72;5083225;27;47507;-76
2023/08/30 07:06:56;;;;;;;;;3.00;3.00;;;;;25.90;50.71;100650.53;5008188;28;45461;-77
2023/08/30 07:09:28;;;;;;;;;3.00;3.00;;;;;25.94;50.47;100642.81;5017481;27;45479;-77
2023/08/30 07:11:53;;;;;;;;;3.00;3.00;;;;;25.98;49.89;100651.44;5031299;28;45396;-78
2023/08/30 07:14:20;;;;;;;;;3.33;3.33;;;;;26.03;50.27;100659.88;5037732;27;45439;-78
2023/08/30 07:16:45;;;;;;;;;3.00;3.00;;;;;26.07;50.21;100650.31;5074517;27;45371;-77
2023/08/30 07:19:11;;;;;;;;;3.00;3.00;;;;;26.11;49.90;100651.63;5044456;27;46861;-76
2023/08/30 07:21:38;;;;;;;;;2.00;2.00;;;;;26.13;49.86;100655.03;5030651;28;51819;-77
2023/08/30 07:24:05;;;;;;;;;6.00;3.00;;;;;26.15;49.65;100652.94;5031830;28;45461;-75
2023/08/30 07:26:31;;;;;;;;;3.00;2.00;;;;;26.19;49.92;100650.69;5026685;28;47317;-76
2023/08/30 07:28:57;;;;;;;;;4.00;4.00;;;;;26.22;49.84;100646.75;5089092;27;56580;-77
2023/08/30 07:31:22;;;;;;;;;3.00;3.00;;;;;26.21;49.75;100647.78;5012933;27;45713;-77
2023/08/30 07:33:47;;;;;;;;;5.00;3.33;;;;;26.27;49.03;100655.22;5030600;28;45425;-76
2023/08/30 07:36:13;;;;;;;;;2.00;2.00;;;;;26.26;49.46;100638.06;5013540;28;48781;-77
2023/08/30 07:38:38;;;;;;;;;3.00;3.00;;;;;26.30;49.04;100644.81;5029234;28;54903;-78
2023/08/30 07:41:03;;;;;;;;;3.33;3.00;;;;;26.33;48.96;100649.03;5033079;27;45488;-77
2023/08/30 07:43:29;;;;;;;;;4.00;2.33;;;;;26.34;48.84;100645.28;5043525;27;45678;-77
2023/08/30 07:45:54;;;;;;;;;3.00;3.00;;;;;26.38;49.05;100643.00;5031637;28;45691;-75
2023/08/30 07:48:19;;;;;;;;;3.00;3.00;;;;;26.40;49.14;100651.84;5029271;28;45556;-76
2023/08/30 07:50:44;;;;;;;;;6.00;3.00;;;;;26.43;48.64;100648.72;5028844;28;45451;-87
2023/08/30 07:53:10;;;;;;;;;3.00;3.00;;;;;26.43;48.41;100646.84;5026759;27;45785;-83
2023/08/30 07:55:36;;;;;;;;;2.33;2.33;;;;;26.42;48.51;100644.31;5062972;27;45453;-79
2023/08/30 07:58:02;;;;;;;;;1.67;1.67;;;;;26.49;48.91;100649.84;5041013;27;45445;-79
2023/08/30 08:00:28;;;;;;;;;3.00;3.00;;;;;26.50;48.10;100648.81;5031833;28;45573;-79
2023/08/30 08:02:53;;;;;;;;;1.67;1.67;;;;;26.54;48.70;100650.97;5030141;28;45576;-79
2023/08/30 08:05:19;;;;;;;;;2.00;2.00;;;;;26.57;48.63;100653.28;5023699;28;58217;-79
2023/08/30 08:07:44;;;;;;;;;4.00;3.00;;;;;26.60;48.69;100656.69;5074200;27;50954;-82
2023/08/30 08:10:09;;;;;;;;;2.00;2.00;;;;;26.60;48.56;100656.69;5069272;27;45454;-82
2023/08/30 08:12:35;;;;;;;;;3.00;3.00;;;;;26.60;47.82;100652.06;5001099;28;46283;-80
2023/08/30 08:15:01;;;;;;;;;3.00;3.00;;;;;26.62;48.37;100650.00;5018259;28;45538;-79
2023/08/30 08:17:27;;;;;;;;;4.00;2.67;;;;;26.63;48.01;100651.69;5030802;28;45635;-80
2023/08/30 08:19:52;;;;;;;;;1.33;1.33;;;;;26.67;47.70;100655.72;5059079;27;45472;-76
2023/08/30 08:22:17;;;;;;;;;2.00;2.00;;;;;26.70;47.84;100662.66;5101664;27;45344;-75
2023/08/30 08:24:45;;;;;;;;;1.67;1.67;;;;;26.70;47.64;100660.75;5031477;28;45444;-76
2023/08/30 08:27:11;;;;;;;;;1.67;1.67;;;;;26.72;47.66;100657.03;5027743;28;45994;-77
2023/08/30 08:29:36;;;;;;;;;4.33;3.00;;;;;26.70;47.31;100640.88;5031296;28;45538;-77
2023/08/30 08:32:02;;;;;;;;;4.00;4.00;;;;;26.72;47.44;100649.69;5019777;27;46242;-76
2023/08/30 08:34:27;;;;;;;;;3.33;2.00;;;;;26.73;47.34;100651.38;5089050;27;45389;-78
2023/08/30 08:36:53;;;;;;;;;3.33;3.33;;;;;26.72;47.63;100649.69;5047634;27;54362;-74
2023/08/30 08:39:18;;;;;;;;;3.00;3.00;;;;;26.70;46.92;100649.88;5035626;27;46012;-73
2023/08/30 08:41:44;;;;;;;;;2.00;1.33;;;;;26.69;47.34;100660.97;5056250;27;45473;-75
2023/08/30 08:44:11;;;;;;;;;2.67;2.67;;;;;26.67;47.22;100650.28;5031201;28;45472;-76
2023/08/30 08:46:38;;;;;;;;;1.33;1.33;;;;;26.67;47.50;100658.44;5024238;28;46016;-73
2023/08/30 08:49:16;;;;;;;;;4.00;4.00;;;;;26.71;47.41;100656.16;5030962;28;45804;-76
2023/08/30 08:51:43;;;;;;;;;3.00;1.67;;;;;26.72;47.26;100651.59;5042044;27;46012;-74
2023/08/30 08:54:11;;;;;;;;;3.00;3.00;;;;;26.73;47.03;100654.09;5041157;27;45594;-74
2023/08/30 08:56:38;;;;;;;;;5.00;3.33;;;;;26.76;46.81;100666.50;5020481;27;45782;-75
2023/08/30 08:59:06;;;;;;;;;2.00;2.00;;;;;26.76;46.79;100656.44;5028739;28;45487;-75
2023/08/30 09:01:35;;;;;;;;;3.33;3.00;;;;;26.78;47.07;100661.69;5030953;27;45677;-76
2023/08/30 09:04:04;;;;;;;;;2.33;2.33;;;;;26.75;45.84;100656.63;5032289;27;45462;-81
2023/08/30 09:06:29;;;;;;;;;2.33;2.33;;;;;26.70;45.00;100658.03;5053444;27;46225;-76
2023/08/30 09:08:54;;;;;;;;;4.67;2.00;;;;;26.66;45.27;100664.94;5035362;27;45525;-73
2023/08/30 09:11:20;;;;;;;;;3.33;3.33;;;;;26.61;45.40;100652.91;5083560;27;45530;-76
2023/08/30 09:13:45;;;;;;;;;4.00;2.33;;;;;26.62;45.40;100660.91;5024585;28;47682;-77
2023/08/30 09:16:15;;;;;;;;;1.00;1.00;;;;;26.63;45.97;100667.16;5029380;28;57201;-78
2023/08/30 09:18:43;;;;;;;;;2.00;2.00;;;;;26.65;45.82;100656.94;5054355;27;45532;-77
2023/08/30 09:21:10;;;;;;;;;3.00;1.00;;;;;26.66;45.68;100667.66;5046984;27;45562;-78
2023/08/30 09:23:35;;;;;;;;;2.00;2.00;;;;;26.68;46.31;100671.00;5029331;28;45530;-75
2023/08/30 09:26:02;;;;;;;;;4.67;3.33;;;;;26.66;46.16;100654.03;5028517;28;45412;-77
2023/08/30 09:28:28;;;;;;;;;1.67;1.67;;;;;26.69;45.87;100661.81;5028193;28;46175;-76
2023/08/30 09:30:53;;;;;;;;;5.00;3.00;;;;;26.70;45.84;100663.47;5039940;27;45550;-76
2023/08/30 09:33:32;;;;;;;;;3.00;2.67;;;;;26.71;46.16;100669.78;5048899;27;45544;-75
2023/08/30 09:35:58;;;;;;;;;4.67;2.33;;;;;26.70;46.02;100668.09;5027005;28;46430;-76
2023/08/30 09:38:23;;;;;;;;;5.00;2.00;;;;;26.70;46.20;100668.09;5024320;28;45773;-78
2023/08/30 09:40:49;;;;;;;;;3.67;2.33;;;;;26.70;45.97;100662.66;5021826;27;45355;-78
2023/08/30 09:43:18;;;;;;;;;4.33;2.00;;;;;26.73;46.00;100669.59;5036211;27;46155;-78
2023/08/30 09:45:44;;;;;;;;;3.00;1.00;;;;;26.74;46.04;100653.06;5036389;27;45697;-78
2023/08/30 09:48:10;;;;;;;;;3.00;2.67;;;;;26.76;46.01;100659.16;5041435;27;45421;-76
2023/08/30 09:50:36;;;;;;;;;3.67;3.00;;;;;26.73;45.71;100648.63;5027596;28;46049;-78
2023/08/30 09:53:11;;;;;;;;;2.00;2.00;;;;;26.79;46.20;100657.94;5026830;28;45414;-77
2023/08/30 09:55:37;;;;;;;;;3.33;2.33;;;;;26.80;45.49;100646.84;5025301;28;46292;-77
2023/08/30 09:58:06;;;;;;;;;4.00;3.00;;;;;26.81;45.28;100643.09;5025789;27;45531;-77
2023/08/30 10:00:34;;;;;;;;;4.00;3.67;;;;;26.85;45.37;100657.16;5046455;27;45599;-76
2023/08/30 10:03:00;;;;;;;;;3.00;2.00;;;;;26.87;45.40;100659.69;5020410;27;45501;-77
2023/08/30 10:05:26;;;;;;;;;2.00;2.00;;;;;26.88;45.41;100653.19;5046950;27;45472;-79
2023/08/30 10:07:55;;;;;;;;;1.00;1.00;;;;;26.88;45.28;100648.59;5038167;27;45658;-74
2023/08/30 10:10:22;;;;;;;;;2.00;1.67;;;;;26.89;45.39;100654.91;5061558;27;45428;-74
2023/08/30 10:12:49;;;;;;;;;3.00;2.67;;;;;26.90;45.38;100645.69;5036458;27;45778;-78
2023/08/30 10:15:15;;;;;;;;;3.00;2.67;;;;;26.90;45.75;100642.97;5026038;28;46480;-77
2023/08/30 10:17:45;;;;;;;;;1.00;1.00;;;;;26.91;45.80;100642.78;5026635;28;45572;-78
2023/08/30 10:20:12;;;;;;;;;2.00;2.00;;;;;26.92;45.42;100646.31;5029169;28;45319;-78
2023/08/30 10:22:39;;;;;;;;;4.67;3.00;;;;;26.94;45.42;100644.31;5032490;27;45669;-78
2023/08/30 10:25:19;;;;;;;;;3.67;2.00;;;;;26.96;45.93;100634.03;5084800;27;46370;-76
2023/08/30 10:27:46;;;;;;;;;3.00;3.00;;;;;26.96;45.89;100640.34;5028746;28;45749;-76
2023/08/30 10:30:13;;;;;;;;;1.33;1.33;;;;;26.99;45.00;100636.38;5029160;28;46078;-77
2023/08/30 10:32:43;;;;;;;;;9.67;6.33;;;;;26.99;45.27;100635.53;5028056;28;45375;-75
2023/08/30 10:35:16;;;;;;;;;10.67;8.33;;;;;27.00;45.70;100632.63;5014743;27;46731;-76
2023/08/30 10:37:42;;;;;;;;;20.33;16.33;;;;;27.00;45.45;100632.63;5041361;27;46110;-74
2023/08/30 10:40:09;;;;;;;;;6.00;5.33;;;;;27.00;44.89;100637.22;5018105;27;45550;-77
2023/08/30 10:42:34;;;;;;;;;10.00;8.00;;;;;26.93;44.32;100632.56;5030820;28;45650;-80
2023/08/30 10:45:04;;;;;;;;;8.67;7.67;;;;;26.92;44.48;100636.28;5028825;28;45670;-84
2023/08/30 10:47:40;;;;;;;;;7.33;7.33;;;;;26.89;44.51;100628.50;5022562;28;45408;-79
2023/08/30 10:50:11;;;;;;;;;8.00;7.33;;;;;26.84;44.38;100622.78;5053235;27;45785;-80
2023/08/30 10:52:36;;;;;;;;;9.67;6.67;;;;;26.81;44.53;100625.91;5052095;27;45410;-80
2023/08/30 10:55:14;;;;;;;;;7.67;7.67;;;;;26.79;44.97;100620.66;5028997;28;46143;-80
2023/08/30 10:57:44;;;;;;;;;14.00;8.00;;;;;26.76;45.10;100626.47;5026387;28;45517;-77
2023/08/30 11:00:19;;;;;;;;;10.00;9.00;;;;;26.76;45.25;100622.94;5031842;28;45408;-78
2023/08/30 11:02:47;;;;;;;;;8.33;6.67;;;;;26.77;44.66;100627.34;5042313;27;45512;-74
2023/08/30 11:05:14;;;;;;;;;8.33;6.67;;;;;26.77;43.98;100624.63;5069624;27;45530;-74
2023/08/30 11:07:40;;;;;;;;;4.00;3.33;;;;;26.77;43.08;100627.34;5030709;28;45626;-75
2023/08/30 11:10:09;;;;;;;;;10.00;5.00;;;;;26.77;43.69;100630.06;5023446;28;45739;-75
2023/08/30 11:12:35;;;;;;;;;10.00;5.00;;;;;26.78;44.53;100631.75;5023554;28;45592;-75
2023/08/30 11:15:01;;;;;;;;;9.33;7.00;;;;;26.78;43.71;100635.31;5030619;27;46528;-75
2023/08/30 11:17:27;;;;;;;;;16.33;9.33;;;;;26.76;43.86;100636.56;5021982;27;45612;-75
2023/08/30 11:20:06;;;;;;;;;8.33;6.00;;;;;26.76;44.14;100633.84;5022573;27;45660;-76
2023/08/30 11:22:33;;;;;;;;;11.00;7.33;;;;;26.74;44.36;100622.28;5017106;27;45494;-77
2023/08/30 11:24:58;;;;;;;;;8.33;6.67;;;;;26.74;44.06;100630.44;5020165;27;46314;-76
2023/08/30 11:27:24;;;;;;;;;13.50;9.50;;;;;26.74;44.02;100633.16;5028826;27;47052;-75
2023/08/30 11:29:49;;;;;;;;;13.33;11.00;;;;;26.72;44.43;100637.97;5027885;27;45684;-75
2023/08/30 11:32:16;;;;;;;;;15.00;10.67;;;;;26.75;44.31;100638.41;5031377;27;46512;-76
2023/08/30 11:34:41;;;;;;;;;38.67;31.67;;;;;26.74;44.10;100625.00;5021294;27;47046;-77
2023/08/30 11:37:08;;;;;;;;;26.67;21.33;;;;;26.70;44.83;100630.00;5023721;28;45389;-75
2023/08/30 11:39:33;;;;;;;;;23.67;20.33;;;;;26.66;44.68;100623.25;5021464;28;45492;-74
2023/08/30 11:41:59;;;;;;;;;25.00;20.00;;;;;26.70;44.43;100630.00;5036370;27;45875;-76
2023/08/30 11:44:25;;;;;;;;;25.33;21.33;;;;;26.72;45.16;100622.47;5032676;27;45679;-75
2023/08/30 11:47:00;;;;;;;;;24.33;19.67;;;;;26.76;45.21;100622.94;5033090;28;45342;-76
2023/08/30 11:49:27;;;;;;;;;23.67;20.67;;;;;26.79;45.49;100617.94;5031316;28;45562;-74
2023/08/30 11:51:56;;;;;;;;;29.00;20.00;;;;;26.84;45.14;100622.78;5024602;27;45861;-73
2023/08/30 11:54:23;;;;;;;;;22.67;18.67;;;;;26.84;44.92;100626.38;5068206;27;45727;-76
2023/08/30 11:56:49;;;;;;;;;28.00;21.00;;;;;26.90;44.85;100621.19;5052708;27;45556;-77
2023/08/30 11:59:19;;;;;;;;;25.00;19.33;;;;;26.91;45.13;100618.28;5026759;28;45462;-77
2023/08/30 12:01:45;;;;;;;;;22.33;19.67;;;;;26.97;45.67;100619.38;5026299;28;45487;-77
2023/08/30 12:04:11;;;;;;;;;26.00;19.67;;;;;27.00;45.14;100620.88;5034851;27;51359;-77
2023/08/30 12:06:36;;;;;;;;;20.33;18.67;;;;;27.03;45.26;100623.22;5042833;27;45368;-76
2023/08/30 12:09:03;;;;;;;;;23.67;20.33;;;;;27.05;45.94;100618.44;5068004;27;45653;-78
2023/08/30 12:11:32;;;;;;;;;22.00;18.67;;;;;27.07;45.72;100617.19;5034820;27;46412;-78
2023/08/30 12:14:03;;;;;;;;;24.00;20.33;;;;;27.10;45.83;100624.13;5022800;28;45662;-74
2023/08/30 12:16:28;;;;;;;;;19.00;15.33;;;;;27.13;46.07;100629.16;5029764;28;45503;-76
2023/08/30 12:18:54;;;;;;;;;20.00;16.00;;;;;27.15;45.56;100623.53;5030979;27;45673;-75
2023/08/30 12:21:19;;;;;;;;;23.00;17.67;;;;;27.17;46.14;100638.63;5034507;27;50767;-76
2023/08/30 12:23:44;;;;;;;;;15.00;9.67;;;;;27.15;44.37;100621.66;5031370;27;47002;-77
2023/08/30 12:26:10;;;;;;;;;13.67;10.67;;;;;27.17;43.29;100626.88;5028911;28;55558;-78
2023/08/30 12:28:38;;;;;;;;;7.33;7.33;;;;;27.12;42.10;100623.91;5035133;28;45445;-77
2023/08/30 12:31:04;;;;;;;;;11.00;10.00;;;;;27.11;42.65;100620.38;5024016;28;45654;-78
2023/08/30 12:33:31;;;;;;;;;15.33;11.67;;;;;27.10;43.44;100624.97;5050026;27;46275;-77
2023/08/30 12:35:57;;;;;;;;;13.33;9.33;;;;;27.11;43.12;100623.09;5035072;27;45657;-78
2023/08/30 12:38:23;;;;;;;;;15.67;10.67;;;;;27.12;43.69;100632.09;5027848;28;45657;-78
2023/08/30 12:40:50;;;;;;;;;11.67;10.00;;;;;27.13;43.99;100631.91;5030836;28;45561;-77
2023/08/30 12:43:16;;;;;;;;;12.67;11.33;;;;;27.15;43.62;100626.25;5030529;28;46329;-77
2023/08/30 12:45:43;;;;;;;;;10.33;8.00;;;;;27.17;43.73;100629.63;5032063;27;45907;-77
2023/08/30 12:48:09;;;;;;;;;15.33;13.67;;;;;27.16;43.99;100628.78;5079251;27;45830;-74
2023/08/30 12:50:38;;;;;;;;;16.00;11.00;;;;;27.22;43.70;100627.19;5030672;28;45440;-76
2023/08/30 12:53:05;;;;;;;;;14.33;10.00;;;;;27.23;43.91;100617.94;5033055;28;45948;-78
2023/08/30 12:55:31;;;;;;;;;13.33;12.33;;;;;27.26;44.67;100620.25;5030464;28;45414;-76
2023/08/30 12:57:56;;;;;;;;;9.33;9.33;;;;;27.26;43.93;100614.00;5031131;27;45444;-77
2023/08/30 13:00:22;;;;;;;;;17.67;14.00;;;;;27.30;44.52;100618.84;5058577;27;45450;-77
2023/08/30 13:02:47;;;;;;;;;12.33;9.33;;;;;27.33;44.08;100612.16;5028119;27;45993;-76
2023/08/30 13:05:13;;;;;;;;;12.67;11.33;;;;;27.38;44.38;100608.84;5028957;28;45322;-76
2023/08/30 13:07:39;;;;;;;;;12.00;12.00;;;;;27.40;44.75;100620.38;5030668;28;45314;-77
2023/08/30 13:10:05;;;;;;;;;20.67;18.33;;;;;27.37;44.46;100602.53;5030880;28;45376;-73
2023/08/30 13:12:30;;;;;;;;;19.00;17.00;;;;;27.41;44.64;100617.47;5070763;27;46371;-72
2023/08/30 13:14:56;;;;;;;;;15.67;14.33;;;;;27.38;44.00;100611.56;5080697;27;45493;-78
2023/08/30 13:17:21;;;;;;;;;14.67;13.33;;;;;27.32;43.49;100613.19;5023776;27;45653;-78
2023/08/30 13:19:47;;;;;;;;;13.67;13.67;;;;;27.29;43.36;100616.31;5028877;28;54376;-77
2023/08/30 13:22:12;;;;;;;;;10.00;10.00;;;;;27.25;43.22;100617.75;5024176;27;47278;-77
2023/08/30 13:24:37;;;;;;;;;11.67;11.00;;;;;27.20;42.02;100612.88;5051760;27;45501;-74
2023/08/30 13:27:03;;;;;;;;;6.67;6.33;;;;;27.16;42.74;100625.22;5071420;27;58569;-75
2023/08/30 13:29:29;;;;;;;;;6.00;6.00;;;;;27.14;41.68;100624.56;5029822;28;45700;-76
2023/08/30 13:31:54;;;;;;;;;8.00;6.00;;;;;27.11;41.94;100612.19;5003737;28;47250;-76
2023/08/30 13:34:20;;;;;;;;;8.00;5.67;;;;;27.08;41.04;100618.88;5017328;28;45518;-79
2023/08/30 13:36:45;;;;;;;;;5.00;5.00;;;;;27.09;40.87;100627.88;5029064;28;45533;-80
2023/08/30 13:39:10;;;;;;;;;5.00;4.33;;;;;27.07;41.09;100619.91;5063577;27;46493;-81
2023/08/30 13:41:36;;;;;;;;;5.00;5.00;;;;;27.07;40.54;100624.50;5052116;27;47005;-78
2023/08/30 13:44:03;;;;;;;;;4.00;4.00;;;;;27.05;40.08;100626.59;5029368;28;45682;-82
2023/08/30 13:46:29;;;;;;;;;4.33;4.00;;;;;27.04;40.17;100622.16;5029524;28;45530;-77
2023/08/30 13:48:55;;;;;;;;;4.33;4.33;;;;;27.03;40.82;100628.66;5029992;28;45432;-79
2023/08/30 13:51:22;;;;;;;;;3.00;3.00;;;;;27.01;40.65;100630.75;5069267;27;45467;-77
2023/08/30 13:53:48;;;;;;;;;10.33;7.67;;;;;26.99;39.84;100625.50;5043466;27;45669;-75
2023/08/30 13:56:13;;;;;;;;;6.00;5.33;;;;;26.99;40.76;100624.63;5027846;28;45878;-74
2023/08/30 13:58:38;;;;;;;;;6.33;6.33;;;;;26.99;40.33;100632.81;5020613;28;48160;-76
2023/08/30 14:01:04;;;;;;;;;8.00;6.67;;;;;26.98;40.74;100636.56;5027537;28;46008;-78
2023/08/30 14:03:30;;;;;;;;;5.67;5.67;;;;;26.93;40.34;100621.66;5032691;27;45622;-78
2023/08/30 14:05:56;;;;;;;;;5.00;5.00;;;;;26.96;41.03;100625.88;5094990;27;45516;-79
2023/08/30 14:08:21;;;;;;;;;7.00;5.00;;;;;26.94;41.19;100634.22;5026132;28;45428;-80
2023/08/30 14:10:46;;;;;;;;;4.00;4.00;;;;;26.95;40.66;100626.91;5024037;28;45905;-75
2023/08/30 14:13:12;;;;;;;;;5.67;5.67;;;;;26.94;41.07;100639.69;5025900;28;45538;-76
2023/08/30 14:15:37;;;;;;;;;5.67;3.67;;;;;26.93;40.47;100635.28;5020685;27;45396;-76
2023/08/30 14:18:03;;;;;;;;;8.33;4.67;;;;;26.91;40.34;100631.03;5059335;27;49769;-75
2023/08/30 14:20:28;;;;;;;;;4.33;4.33;;;;;26.92;40.30;100636.28;5073743;27;45383;-79
2023/08/30 14:22:53;;;;;;;;;4.33;4.00;;;;;26.90;40.93;100641.09;5032022;28;63782;-76
2023/08/30 14:25:18;;;;;;;;;4.00;4.00;;;;;26.92;40.87;100639.00;5030730;27;45413;-78
2023/08/30 14:27:44;;;;;;;;;2.67;2.67;;;;;26.91;40.49;100644.66;5024067;27;55573;-79
2023/08/30 14:30:10;;;;;;;;;2.33;2.33;;;;;26.91;40.77;100644.66;5033012;27;46168;-76
2023/08/30 14:32:35;;;;;;;;;5.33;5.00;;;;;26.91;40.62;100641.91;5056269;27;45463;-76
2023/08/30 14:35:03;;;;;;;;;3.67;3.67;;;;;26.90;40.18;100649.25;5032199;28;45809;-76
2023/08/30 14:37:28;;;;;;;;;3.00;3.00;;;;;26.91;40.33;100653.66;5026749;28;45873;-78
2023/08/30 14:39:54;;;;;;;;;4.00;4.00;;;;;26.88;40.14;100640.44;5022598;28;50898;-78
2023/08/30 14:42:20;;;;;;;;;4.67;4.00;;;;;26.89;39.97;100653.00;5046429;27;45630;-75
2023/08/30 14:44:49;;;;;;;;;4.00;3.00;;;;;26.90;40.11;100653.84;5077259;27;45597;-76
2023/08/30 14:47:14;;;;;;;;;4.33;4.33;;;;;26.91;40.06;100652.81;5034592;27;45739;-77
2023/08/30 14:49:39;;;;;;;;;4.00;4.00;;;;;26.91;40.14;100661.84;5030794;28;47007;-79
2023/08/30 14:52:05;;;;;;;;;6.67;4.00;;;;;26.91;39.75;100661.84;5032566;28;45619;-79
2023/08/30 14:54:30;;;;;;;;;7.00;4.33;;;;;26.91;39.99;100670.00;5031328;27;46521;-77
2023/08/30 14:56:55;;;;;;;;;7.00;6.67;;;;;26.92;40.28;100660.78;5064254;27;45463;-87
2023/08/30 14:59:21;;;;;;;;;4.33;4.33;;;;;26.91;40.36;100660.97;5033299;27;52475;-87
2023/08/30 15:01:46;;;;;;;;;6.00;4.00;;;;;26.93;40.61;100667.09;5024281;27;45399;-88
2023/08/30 15:04:11;;;;;;;;;5.67;4.67;;;;;26.93;39.58;100670.69;5029661;28;52768;-87
2023/08/30 15:06:39;;;;;;;;;3.00;3.00;;;;;26.92;38.91;100655.34;5031717;28;48517;-84
2023/08/30 15:09:04;;;;;;;;;3.33;3.33;;;;;26.89;38.94;100652.19;5054191;27;46274;-86
2023/08/30 15:11:30;;;;;;;;;6.00;4.33;;;;;26.90;38.93;100671.06;5042465;27;55558;-82
2023/08/30 15:13:56;;;;;;;;;3.67;3.67;;;;;26.91;39.46;100675.47;5020099;28;51848;-83
2023/08/30 15:16:21;;;;;;;;;5.33;4.00;;;;;26.86;38.67;100664.31;5030314;28;45371;-79
2023/08/30 15:18:46;;;;;;;;;4.67;4.33;;;;;26.87;38.79;100674.16;5027766;28;46230;-75
2023/08/30 15:21:13;;;;;;;;;4.00;3.00;;;;;26.85;38.70;100668.03;5035780;27;60724;-82
2023/08/30 15:23:38;;;;;;;;;3.00;3.00;;;;;26.82;38.63;100674.72;5088218;27;45766;-83
2023/08/30 15:26:05;;;;;;;;;3.33;3.33;;;;;26.81;38.95;100667.59;5032515;27;45519;-80
2023/08/30 15:28:30;;;;;;;;;4.67;4.33;;;;;26.80;38.45;100671.34;5029382;28;45973;-79
2023/08/30 15:30:57;;;;;;;;;3.67;3.67;;;;;26.82;39.03;100677.44;5028054;28;45498;-79
2023/08/30 15:33:24;;;;;;;;;2.00;2.00;;;;;26.80;38.48;100671.34;5032125;28;45366;-80
2023/08/30 15:35:49;;;;;;;;;3.00;3.00;;;;;26.84;38.50;100677.25;5051504;27;45468;-80
2023/08/30 15:38:15;;;;;;;;;3.00;3.00;;;;;26.86;39.28;100674.34;5044292;27;46516;-74
2023/08/30 15:40:41;;;;;;;;;4.00;3.00;;;;;26.83;38.37;100678.28;5030485;27;45987;-75
2023/08/30 15:43:06;;;;;;;;;4.00;1.67;;;;;26.83;37.81;100679.16;5030531;28;45456;-75
2023/08/30 15:45:32;;;;;;;;;2.00;2.00;;;;;26.80;38.13;100682.25;5031882;28;45378;-76
2023/08/30 15:47:57;;;;;;;;;3.00;3.00;;;;;26.82;37.76;100680.16;5027576;27;46713;-75
2023/08/30 15:50:22;;;;;;;;;3.00;2.33;;;;;26.83;37.75;100681.00;5033587;27;45429;-76
2023/08/30 15:52:48;;;;;;;;;3.00;3.00;;;;;26.81;37.70;100664.88;5031241;28;45688;-75
2023/08/30 15:55:13;;;;;;;;;3.00;2.00;;;;;26.81;37.31;100672.22;5025657;28;47862;-76
2023/08/30 15:57:39;;;;;;;;;2.67;1.33;;;;;26.77;37.78;100673.63;5029652;28;47281;-77
2023/08/30 16:00:06;;;;;;;;;2.67;2.33;;;;;26.79;37.80;100672.41;5035941;27;45418;-74
2023/08/30 16:02:32;;;;;;;;;2.00;1.00;;;;;26.79;38.20;100675.13;5058376;27;45607;-77
2023/08/30 16:04:57;;;;;;;;;1.00;1.00;;;;;26.83;37.72;100664.69;5040778;27;45612;-77
2023/08/30 16:07:23;;;;;;;;;3.00;3.00;;;;;26.84;38.23;100674.53;5030954;28;57705;-74
2023/08/30 16:09:48;;;;;;;;;2.67;2.00;;;;;26.86;37.75;100685.22;5020197;28;45456;-78
2023/08/30 16:12:14;;;;;;;;;1.00;1.00;;;;;26.83;38.04;100679.16;5030389;28;45914;-80
2023/08/30 16:14:39;;;;;;;;;2.00;2.00;;;;;26.84;38.29;100689.00;5047249;27;45581;-80
2023/08/30 16:17:05;;;;;;;;;2.00;1.67;;;;;26.87;38.13;100685.03;5065813;27;47189;-75
2023/08/30 16:19:30;;;;;;;;;3.00;2.00;;;;;26.91;38.34;100693.66;5028241;27;45466;-75
2023/08/30 16:21:55;;;;;;;;;1.33;1.33;;;;;26.92;38.45;100698.91;5031974;28;45374;-76
2023/08/30 16:24:26;;;;;;;;;3.00;2.33;;;;;26.96;38.99;100696.69;5028849;28;45596;-77
2023/08/30 16:26:55;;;;;;;;;3.00;1.00;;;;;26.95;38.02;100695.84;5050610;27;45404;-76
2023/08/30 16:29:22;;;;;;;;;1.00;1.00;;;;;26.92;37.62;100693.47;5032216;27;45736;-78
2023/08/30 16:31:51;;;;;;;;;1.33;1.33;;;;;26.94;37.73;100696.88;5031111;28;46038;-78
2023/08/30 16:34:17;;;;;;;;;4.33;1.67;;;;;26.93;38.31;100699.78;5024383;28;45646;-81
2023/08/30 16:36:42;;;;;;;;;1.67;1.00;;;;;26.99;37.95;100696.31;5021401;27;46058;-81
2023/08/30 16:39:08;;;;;;;;;0.00;0.00;;;;;27.00;37.97;100706.16;5032413;27;45713;-81
2023/08/30 16:41:33;;;;;;;;;1.00;1.00;;;;;27.02;38.19;100701.34;5060122;27;63145;-78
2023/08/30 16:43:58;;;;;;;;;2.33;1.00;;;;;26.98;38.25;100693.75;5068046;27;50554;-81
2023/08/30 16:46:24;;;;;;;;;2.00;2.00;;;;;27.05;38.21;100691.97;5030531;27;56917;-82
2023/08/30 16:48:49;;;;;;;;;1.33;1.33;;;;;27.06;38.11;100697.19;5029988;28;45672;-77
2023/08/30 16:51:15;;;;;;;;;1.00;1.00;;;;;27.07;37.87;100695.34;5030272;28;55513;-77
2023/08/30 16:53:40;;;;;;;;;2.00;2.00;;;;;27.08;38.66;100692.41;5049167;27;45497;-79
2023/08/30 16:56:05;;;;;;;;;1.67;1.67;;;;;27.10;38.45;100695.78;5113646;27;64561;-81
2023/08/30 16:58:31;;;;;;;;;1.00;1.00;;;;;27.10;38.59;100695.78;5016132;28;45359;-79
2023/08/30 17:00:56;;;;;;;;;4.67;3.00;;;;;27.10;38.12;100698.50;5031326;28;45559;-79
2023/08/30 17:03:22;;;;;;;;;1.00;1.00;;;;;27.13;38.63;100691.00;5025510;27;45530;-83
